Terminal Aerodrome Forecast
Issued by NWS

Home | Current Version | Previous Version | Text Only | Print | Product List | Glossary On
Versions: 1 2 3 4 5 6 7 8 9 10 11 12 13 14 15
000
FTUS43 KTOP 170524
TAFMHK
TAF
KMHK 170524Z 1706/1806 23004KT P6SM OVC200
     FM170900 20004KT P6SM VCSH SCT040 BKN080
     FM171400 VRB03KT P6SM OVC025
     FM171900 27004KT P6SM BKN035
     FM180200 VRB03KT P6SM SCT040=

USA.gov is the U.S. government's official web portal to all federal, state and local government web resources and services.